Filia Ariea — PIET — position and weather

sailwx.info

Track history (hours):
 
Tides and Currents Weather Stations Pressure Air Temp Water Temp Dewpoint Dewpoint Depression Visibility Wind Speed Wind Dir Waves Ship Positions

Filia Ariea

Last reported at 2016-Aug-25 07:26 UTC. Time now 2016-Aug-25 13:17 UTC.
Position N 40°41' W 009°20'.

Length 90 m; draft 3.3 m.

Type: Ship. MMSI: 244662000.

Date/timePositionNaut miles runAvg speedWind from/ knotsBaromVisibWave heightAir tempDewpointWater temp
2016-Aug-25 07:26N 40°41' W 009°20'3311.2
2016-Aug-25 04:29N 40°08' W 009°22'1111.7
2016-Aug-25 03:33N 39°58' W 009°28'1211.6
2016-Aug-25 02:29N 39°47' W 009°34'1111.5
2016-Aug-25 01:33N 39°37' W 009°39'1111.3
2016-Aug-25 00:33N 39°26' W 009°44'1110.7
2016-Aug-24 23:33N 39°15' W 009°46'1110.8
2016-Aug-24 22:33N 39°05' W 009°49'1110.7
2016-Aug-24 21:33N 38°54' W 009°50'1110.7
2016-Aug-24 20:33N 38°44' W 009°50'1111.1
2016-Aug-24 19:33N 38°33' W 009°47'1110.7
2016-Aug-24 18:33N 38°22' W 009°44'1110.8
2016-Aug-24 17:33N 38°12' W 009°40'1110.8
2016-Aug-24 16:33N 38°01' W 009°37'1111.0
2016-Aug-24 15:33N 37°51' W 009°34'1111.3
2016-Aug-24 14:33N 37°39' W 009°31'1111.1
2016-Aug-24 13:33N 37°29' W 009°28'1111.5
2016-Aug-24 12:33N 37°18' W 009°24'1010.4
2016-Aug-24 11:33N 37°07' W 009°21'7 7.3
2016-Aug-24 10:33N 37°00' W 009°20'3310.7
2016-Aug-24 07:29N 36°41' W 008°46'15811.9
2016-Aug-23 18:17N 35°58' W 005°38'911.5
2016-Aug-23 17:32N 35°59' W 005°28'9 9.3
2016-Aug-23 16:33N 35°54' W 005°19'1 0.6
2016-Aug-23 15:33N 35°54' W 005°19'0 0.0
2016-Aug-23 14:26N 35°54' W 005°19'0 0.0
2016-Aug-23 13:32N 35°54' W 005°19'0 0.0
2016-Aug-23 12:31N 35°54' W 005°19'0 0.0
2016-Aug-23 11:31N 35°54' W 005°19'0 0.0
2016-Aug-23 10:33N 35°54' W 005°19'1 0.9
2016-Aug-23 09:33N 35°55' W 005°19'6 6.2
2016-Aug-23 08:33N 35°59' W 005°13'12311.2
2016-Aug-22 21:33N 36°37' W 002°47'1111.6
2016-Aug-22 20:33N 36°41' W 002°34'10 8.7
2016-Aug-22 19:25N 36°50' W 002°29'0 0.0
2016-Aug-22 18:33N 36°50' W 002°29'0 0.0
2016-Aug-22 17:33N 36°50' W 002°29'0 0.0
2016-Aug-22 16:32N 36°50' W 002°29'0 0.0
2016-Aug-22 15:34N 36°50' W 002°29'6 6.2
2016-Aug-22 14:33N 36°45' W 002°23'360 9.7
2016-Aug-21 01:30N 37°21' E 005°05'9711.5
2016-Aug-20 17:05N 37°39' E 007°05'611.4
2016-Aug-20 16:33N 37°40' E 007°13'1211.6
2016-Aug-20 15:32N 37°42' E 007°27'2 1.6
2016-Aug-20 14:33N 37°42' E 007°29'11 9.2
2016-Aug-20 13:23N 37°42' E 007°43'1012.3
2016-Aug-20 12:32N 37°43' E 007°56'1212.2
2016-Aug-20 11:33N 37°44' E 008°11'1212.2
2016-Aug-20 10:33N 37°45' E 008°27'1312.5
2016-Aug-20 09:33N 37°47' E 008°42'1312.5
2016-Aug-20 08:33N 37°49' E 008°58'1212.1
2016-Aug-20 07:33N 37°51' E 009°13'1211.9
2016-Aug-20 06:33N 37°52' E 009°28'1211.9
2016-Aug-20 05:32N 37°54' E 009°43'2411.6
2016-Aug-20 03:26N 37°58' E 010°14'1011.1
2016-Aug-20 02:33N 38°00' E 010°26'1111.0
2016-Aug-20 01:33N 38°02' E 010°40'1111.2
2016-Aug-20 00:33N 38°03' E 010°54'1211.2
2016-Aug-19 23:31N 38°05' E 011°08'1111.2
2016-Aug-19 22:34N 38°06' E 011°22'1111.4
2016-Aug-19 21:34N 38°08' E 011°36'1211.7
2016-Aug-19 20:34N 38°09' E 011°51'1212.2
2016-Aug-19 19:33N 38°11' E 012°07'1212.1
2016-Aug-19 18:33N 38°12' E 012°22'1412.2
2016-Aug-19 17:24N 38°14' E 012°40'1012.1
2016-Aug-19 16:33N 38°15' E 012°53'1212.0
2016-Aug-19 15:34N 38°17' E 013°08'1212.3
2016-Aug-19 14:34N 38°18' E 013°23'1312.4
2016-Aug-19 13:32N 38°17' E 013°39'2511.8
2016-Aug-19 11:26N 38°19' E 014°11'1111.9
2016-Aug-19 10:31N 38°19' E 014°25'1212.3
2016-Aug-19 09:32N 38°19' E 014°40'1212.2
2016-Aug-19 08:33N 38°19' E 014°56'1212.1
2016-Aug-19 07:34N 38°19' E 015°11'1111.4
2016-Aug-19 06:33N 38°19' E 015°25'1110.7
2016-Aug-19 05:33N 38°18' E 015°39'9 9.3
2016-Aug-19 04:34N 38°09' E 015°37'1111.3
2016-Aug-19 03:33N 37°58' E 015°37'1211.6
2016-Aug-19 02:32N 37°52' E 015°50'  
2016-Aug-15 11:19N 37°54' E 015°49'810.5
2016-Aug-15 10:33N 37°56' E 015°39'1110.9
2016-Aug-15 09:33N 38°07' E 015°35'1111.3
2016-Aug-15 08:33N 38°17' E 015°40'1211.7
2016-Aug-15 07:34N 38°20' E 015°26'  
Track history (hours):
 
Tides and Currents Weather Stations Pressure Air Temp Water Temp Dewpoint Dewpoint Depression Visibility Wind Speed Wind Dir Waves Ship Positions

Filia Ariea

Last reported at 2016-Aug-25 07:26 UTC. Time now 2016-Aug-25 13:17 UTC.
Position N 40°41' W 009°20'.

Length 90 m; draft 3.3 m.

Type: Ship. MMSI: 244662000.

Date/timePositionNaut miles runAvg speedWind from/ knotsBaromVisibWave heightAir tempDewpointWater temp
2016-Aug-25 07:26N 40°41' W 009°20'3311.2
2016-Aug-25 04:29N 40°08' W 009°22'1111.7
2016-Aug-25 03:33N 39°58' W 009°28'1211.6
2016-Aug-25 02:29N 39°47' W 009°34'1111.5
2016-Aug-25 01:33N 39°37' W 009°39'1111.3
2016-Aug-25 00:33N 39°26' W 009°44'1110.7
2016-Aug-24 23:33N 39°15' W 009°46'1110.8
2016-Aug-24 22:33N 39°05' W 009°49'1110.7
2016-Aug-24 21:33N 38°54' W 009°50'1110.7
2016-Aug-24 20:33N 38°44' W 009°50'1111.1
2016-Aug-24 19:33N 38°33' W 009°47'1110.7
2016-Aug-24 18:33N 38°22' W 009°44'1110.8
2016-Aug-24 17:33N 38°12' W 009°40'1110.8
2016-Aug-24 16:33N 38°01' W 009°37'1111.0
2016-Aug-24 15:33N 37°51' W 009°34'1111.3
2016-Aug-24 14:33N 37°39' W 009°31'1111.1
2016-Aug-24 13:33N 37°29' W 009°28'1111.5
2016-Aug-24 12:33N 37°18' W 009°24'1010.4
2016-Aug-24 11:33N 37°07' W 009°21'7 7.3
2016-Aug-24 10:33N 37°00' W 009°20'3310.7
2016-Aug-24 07:29N 36°41' W 008°46'15811.9
2016-Aug-23 18:17N 35°58' W 005°38'911.5
2016-Aug-23 17:32N 35°59' W 005°28'9 9.3
2016-Aug-23 16:33N 35°54' W 005°19'1 0.6
2016-Aug-23 15:33N 35°54' W 005°19'0 0.0
2016-Aug-23 14:26N 35°54' W 005°19'0 0.0
2016-Aug-23 13:32N 35°54' W 005°19'0 0.0
2016-Aug-23 12:31N 35°54' W 005°19'0 0.0
2016-Aug-23 11:31N 35°54' W 005°19'0 0.0
2016-Aug-23 10:33N 35°54' W 005°19'1 0.9
2016-Aug-23 09:33N 35°55' W 005°19'6 6.2
2016-Aug-23 08:33N 35°59' W 005°13'12311.2
2016-Aug-22 21:33N 36°37' W 002°47'1111.6
2016-Aug-22 20:33N 36°41' W 002°34'10 8.7
2016-Aug-22 19:25N 36°50' W 002°29'0 0.0
2016-Aug-22 18:33N 36°50' W 002°29'0 0.0
2016-Aug-22 17:33N 36°50' W 002°29'0 0.0
2016-Aug-22 16:32N 36°50' W 002°29'0 0.0
2016-Aug-22 15:34N 36°50' W 002°29'6 6.2
2016-Aug-22 14:33N 36°45' W 002°23'360 9.7
2016-Aug-21 01:30N 37°21' E 005°05'9711.5
2016-Aug-20 17:05N 37°39' E 007°05'611.4
2016-Aug-20 16:33N 37°40' E 007°13'1211.6
2016-Aug-20 15:32N 37°42' E 007°27'2 1.6
2016-Aug-20 14:33N 37°42' E 007°29'11 9.2
2016-Aug-20 13:23N 37°42' E 007°43'1012.3
2016-Aug-20 12:32N 37°43' E 007°56'1212.2
2016-Aug-20 11:33N 37°44' E 008°11'1212.2
2016-Aug-20 10:33N 37°45' E 008°27'1312.5
2016-Aug-20 09:33N 37°47' E 008°42'1312.5
2016-Aug-20 08:33N 37°49' E 008°58'1212.1
2016-Aug-20 07:33N 37°51' E 009°13'1211.9
2016-Aug-20 06:33N 37°52' E 009°28'1211.9
2016-Aug-20 05:32N 37°54' E 009°43'2411.6
2016-Aug-20 03:26N 37°58' E 010°14'1011.1
2016-Aug-20 02:33N 38°00' E 010°26'1111.0
2016-Aug-20 01:33N 38°02' E 010°40'1111.2
2016-Aug-20 00:33N 38°03' E 010°54'1211.2
2016-Aug-19 23:31N 38°05' E 011°08'1111.2
2016-Aug-19 22:34N 38°06' E 011°22'1111.4
2016-Aug-19 21:34N 38°08' E 011°36'1211.7
2016-Aug-19 20:34N 38°09' E 011°51'1212.2
2016-Aug-19 19:33N 38°11' E 012°07'1212.1
2016-Aug-19 18:33N 38°12' E 012°22'1412.2
2016-Aug-19 17:24N 38°14' E 012°40'1012.1
2016-Aug-19 16:33N 38°15' E 012°53'1212.0
2016-Aug-19 15:34N 38°17' E 013°08'1212.3
2016-Aug-19 14:34N 38°18' E 013°23'1312.4
2016-Aug-19 13:32N 38°17' E 013°39'2511.8
2016-Aug-19 11:26N 38°19' E 014°11'1111.9
2016-Aug-19 10:31N 38°19' E 014°25'1212.3
2016-Aug-19 09:32N 38°19' E 014°40'1212.2
2016-Aug-19 08:33N 38°19' E 014°56'1212.1
2016-Aug-19 07:34N 38°19' E 015°11'1111.4
2016-Aug-19 06:33N 38°19' E 015°25'1110.7
2016-Aug-19 05:33N 38°18' E 015°39'9 9.3
2016-Aug-19 04:34N 38°09' E 015°37'1111.3
2016-Aug-19 03:33N 37°58' E 015°37'1211.6
2016-Aug-19 02:32N 37°52' E 015°50'  
2016-Aug-15 11:19N 37°54' E 015°49'810.5
2016-Aug-15 10:33N 37°56' E 015°39'1110.9
2016-Aug-15 09:33N 38°07' E 015°35'1111.3
2016-Aug-15 08:33N 38°17' E 015°40'1211.7
2016-Aug-15 07:34N 38°20' E 015°26'  

Dump ship's entire track history